Time;durP1;ratioP1;P1;durP2;ratioP2;P2;SDS_P1;SDS_P2;PMS_P1;PMS_P2;Temp;Humidity;BMP_temperature;BMP_pressure;BME280_temperature;BME280_humidity;BME280_pressure;Samples;Min_cycle;Max_cycle;Signal;HPM_P1;HPM_P2
2023/10/24 00:00:32;;;;;;;24.70;16.33;;;10.30;99.90;;;;;;4978504;28;20038;-81
2023/10/24 00:02:57;;;;;;;23.43;15.73;;;10.30;99.90;;;;;;5003368;28;20045;-82
2023/10/24 00:05:23;;;;;;;25.77;16.10;;;10.30;99.90;;;;;;4979066;28;20030;-81
2023/10/24 00:07:49;;;;;;;25.10;15.97;;;10.30;99.90;;;;;;4995777;28;20069;-82
2023/10/24 00:10:16;;;;;;;23.40;16.17;;;10.30;99.90;;;;;;5012023;28;20045;-82
2023/10/24 00:12:42;;;;;;;25.20;16.17;;;10.30;99.90;;;;;;5022102;28;20041;-81
2023/10/24 00:15:08;;;;;;;23.37;15.67;;;10.30;99.90;;;;;;4995417;28;20050;-82
2023/10/24 00:17:33;;;;;;;24.47;16.23;;;10.30;99.90;;;;;;5003616;28;20049;-82
2023/10/24 00:19:59;;;;;;;26.40;17.10;;;10.30;99.90;;;;;;5013081;28;20055;-82
2023/10/24 00:22:25;;;;;;;25.90;16.27;;;10.30;99.90;;;;;;5003665;28;20559;-82
2023/10/24 00:24:51;;;;;;;25.10;15.83;;;10.30;99.90;;;;;;4995454;28;20133;-82
2023/10/24 00:27:16;;;;;;;30.03;16.63;;;10.30;99.90;;;;;;4994436;28;20128;-82
2023/10/24 00:29:42;;;;;;;21.13;15.43;;;10.30;99.90;;;;;;5017342;28;20042;-82
2023/10/24 00:32:08;;;;;;;27.50;16.57;;;10.30;99.90;;;;;;5006885;28;20056;-82
2023/10/24 00:34:33;;;;;;;24.10;15.77;;;10.30;99.90;;;;;;4979838;28;20049;-82
2023/10/24 00:36:59;;;;;;;26.17;16.73;;;10.30;99.90;;;;;;4979729;28;20046;-81
2023/10/24 00:39:25;;;;;;;25.57;16.77;;;10.30;99.90;;;;;;4986352;28;20124;-81
2023/10/24 00:41:51;;;;;;;26.17;15.90;;;10.30;99.90;;;;;;5009173;28;20072;-80
2023/10/24 00:44:16;;;;;;;24.27;16.03;;;10.30;99.90;;;;;;4994350;28;20108;-82
2023/10/24 00:46:42;;;;;;;25.95;16.13;;;10.30;99.90;;;;;;4996548;28;20156;-83
2023/10/24 00:49:08;;;;;;;26.37;16.80;;;10.30;99.90;;;;;;5019665;28;20046;-81
2023/10/24 00:51:35;;;;;;;30.20;17.60;;;10.30;99.90;;;;;;4990846;28;20397;-81
2023/10/24 00:54:02;;;;;;;28.83;17.53;;;10.30;99.90;;;;;;4977479;28;20034;-81
2023/10/24 00:56:30;;;;;;;25.17;16.73;;;10.30;99.90;;;;;;5006477;28;20052;-81
2023/10/24 00:58:56;;;;;;;27.63;16.63;;;10.30;99.90;;;;;;5012730;28;20792;-81
2023/10/24 01:01:23;;;;;;;26.63;16.90;;;10.30;99.90;;;;;;4977343;28;20037;-81
2023/10/24 01:03:49;;;;;;;30.50;17.97;;;10.40;99.90;;;;;;4996512;28;20049;-81
2023/10/24 01:06:16;;;;;;;28.27;17.60;;;10.40;99.90;;;;;;5004757;28;20117;-81
2023/10/24 01:08:42;;;;;;;25.77;16.53;;;10.40;99.90;;;;;;4979499;28;20038;-81
2023/10/24 01:11:08;;;;;;;28.70;17.00;;;10.40;99.90;;;;;;4977626;28;20046;-80
2023/10/24 01:13:34;;;;;;;25.23;17.33;;;10.30;99.90;;;;;;4993688;28;20076;-81
2023/10/24 01:16:00;;;;;;;29.35;17.85;;;10.40;99.90;;;;;;4978602;28;20249;-81
2023/10/24 01:18:26;;;;;;;28.63;18.43;;;10.40;99.90;;;;;;5001247;28;20538;-80
2023/10/24 01:20:52;;;;;;;29.93;17.93;;;10.40;99.90;;;;;;5007811;28;20049;-80
2023/10/24 01:23:17;;;;;;;28.53;17.73;;;10.40;99.90;;;;;;5015887;28;20077;-80
2023/10/24 01:25:44;;;;;;;25.60;16.93;;;10.40;99.90;;;;;;4975054;28;20101;-81
2023/10/24 01:28:10;;;;;;;26.90;17.70;;;10.40;99.90;;;;;;4991344;28;20041;-81
2023/10/24 01:30:38;;;;;;;31.20;18.40;;;10.40;99.90;;;;;;5008103;28;20092;-81
2023/10/24 01:33:04;;;;;;;30.43;18.53;;;10.40;99.90;;;;;;4994491;28;20038;-81
2023/10/24 01:35:30;;;;;;;28.27;17.53;;;10.40;99.90;;;;;;4978588;28;20437;-81
2023/10/24 01:37:56;;;;;;;25.90;16.87;;;10.50;99.90;;;;;;5005807;28;20042;-81
2023/10/24 01:40:21;;;;;;;31.50;18.23;;;10.50;99.90;;;;;;4978154;28;20057;-81
2023/10/24 01:42:47;;;;;;;29.90;17.50;;;10.50;99.90;;;;;;5012247;28;20400;-81
2023/10/24 01:45:15;;;;;;;31.13;18.10;;;10.50;99.90;;;;;;4997188;28;20047;-82
2023/10/24 01:47:41;;;;;;;24.97;16.40;;;10.60;99.90;;;;;;5005600;28;20045;-81
2023/10/24 01:50:07;;;;;;;27.30;16.30;;;10.50;99.90;;;;;;5022610;28;20035;-81
2023/10/24 01:52:33;;;;;;;25.33;16.20;;;10.60;99.90;;;;;;4997846;28;20049;-81
2023/10/24 01:54:59;;;;;;;25.87;16.27;;;10.60;99.90;;;;;;4976925;28;20697;-80
2023/10/24 01:57:25;;;;;;;27.77;17.50;;;10.60;99.90;;;;;;5004073;28;20045;-81
2023/10/24 01:59:50;;;;;;;24.80;16.92;;;10.60;99.90;;;;;;4979429;28;20056;-80
2023/10/24 02:02:16;;;;;;;25.63;16.30;;;10.60;99.90;;;;;;4993599;28;20120;-81
2023/10/24 02:04:42;;;;;;;26.13;16.03;;;10.60;99.90;;;;;;4988563;28;20034;-81
2023/10/24 02:07:09;;;;;;;28.70;17.97;;;10.70;99.90;;;;;;4993924;28;20042;-81
2023/10/24 02:09:35;;;;;;;24.97;15.60;;;10.60;99.90;;;;;;4975843;28;20391;-82
2023/10/24 02:12:01;;;;;;;28.23;17.07;;;10.70;99.90;;;;;;5009209;28;20047;-81
2023/10/24 02:14:30;;;;;;;28.77;17.27;;;10.70;99.90;;;;;;5018896;28;20048;-81
2023/10/24 02:16:55;;;;;;;26.00;15.47;;;10.70;99.90;;;;;;5011098;28;20038;-81
2023/10/24 02:19:21;;;;;;;25.07;15.67;;;10.70;99.90;;;;;;5019355;28;20045;-81
2023/10/24 02:21:47;;;;;;;26.47;16.47;;;10.70;99.90;;;;;;5003135;28;20049;-82
2023/10/24 02:24:13;;;;;;;27.08;15.95;;;10.70;99.90;;;;;;4986378;28;20196;-82
2023/10/24 02:26:39;;;;;;;22.70;15.70;;;10.70;99.90;;;;;;5014365;28;20041;-81
2023/10/24 02:29:05;;;;;;;27.42;16.25;;;10.80;99.90;;;;;;4982201;28;20124;-81
2023/10/24 02:31:30;;;;;;;29.03;17.93;;;10.80;99.90;;;;;;5003832;28;20053;-81
2023/10/24 02:33:56;;;;;;;24.37;16.63;;;10.80;99.90;;;;;;5009480;28;20413;-81
2023/10/24 02:36:22;;;;;;;22.97;15.97;;;10.80;99.90;;;;;;5031805;28;20034;-82
2023/10/24 02:38:47;;;;;;;26.20;16.35;;;10.80;99.90;;;;;;4988388;28;20557;-81
2023/10/24 02:41:13;;;;;;;27.83;16.93;;;10.80;99.90;;;;;;5028763;28;20116;-82
2023/10/24 02:43:39;;;;;;;25.73;16.37;;;10.80;99.90;;;;;;5003060;28;20103;-82
2023/10/24 02:46:06;;;;;;;29.17;17.13;;;10.80;99.90;;;;;;5005091;28;20046;-82
2023/10/24 02:48:32;;;;;;;30.80;17.47;;;10.80;99.90;;;;;;4996112;28;20692;-81
2023/10/24 02:50:58;;;;;;;29.77;17.83;;;10.80;99.90;;;;;;5012340;28;20497;-81
2023/10/24 02:53:24;;;;;;;26.25;16.75;;;10.80;99.90;;;;;;5014253;28;20045;-82
2023/10/24 02:55:51;;;;;;;25.40;16.23;;;10.80;99.90;;;;;;5013044;28;20126;-82
2023/10/24 02:58:17;;;;;;;31.58;17.58;;;10.80;99.90;;;;;;4999849;28;20034;-82
2023/10/24 03:00:45;;;;;;;27.00;17.38;;;10.90;99.90;;;;;;5003714;28;20078;-81
2023/10/24 03:03:14;;;;;;;28.60;17.73;;;10.90;99.90;;;;;;4996394;28;20046;-82
2023/10/24 03:05:39;;;;;;;30.52;18.58;;;10.90;99.90;;;;;;5030123;28;20038;-82
2023/10/24 03:08:05;;;;;;;24.48;16.60;;;10.90;99.90;;;;;;5003023;28;20101;-82
2023/10/24 03:10:39;;;;;;;29.83;18.60;;;10.90;99.90;;;;;;5012270;28;20037;-82
2023/10/24 03:13:04;;;;;;;32.60;19.42;;;10.90;99.90;;;;;;5022446;28;20049;-82
2023/10/24 03:15:30;;;;;;;30.95;18.50;;;10.90;99.90;;;;;;5014056;28;20033;-82
2023/10/24 03:17:56;;;;;;;30.47;18.07;;;10.90;99.90;;;;;;5015547;28;20079;-82
2023/10/24 03:20:21;;;;;;;30.92;19.83;;;11.00;99.90;;;;;;5007670;28;20363;-82
2023/10/24 03:22:47;;;;;;;31.57;18.93;;;10.90;99.90;;;;;;4979582;28;20046;-82
2023/10/24 03:25:13;;;;;;;27.47;18.17;;;11.00;99.90;;;;;;4995946;28;20064;-82
2023/10/24 03:27:39;;;;;;;29.60;17.95;;;11.00;99.90;;;;;;4982389;28;20045;-82
2023/10/24 03:30:05;;;;;;;30.08;19.30;;;11.00;99.90;;;;;;4996424;28;20069;-82
2023/10/24 03:32:31;;;;;;;30.40;19.33;;;11.00;99.90;;;;;;5014298;28;20045;-82
2023/10/24 03:34:57;;;;;;;24.10;18.63;;;11.00;99.90;;;;;;5017725;28;20041;-82
2023/10/24 03:37:23;;;;;;;30.00;20.15;;;11.00;99.90;;;;;;4996391;28;20042;-82
2023/10/24 03:39:49;;;;;;;28.90;18.73;;;11.00;99.90;;;;;;4979158;28;20140;-80
2023/10/24 03:42:14;;;;;;;33.28;20.25;;;11.00;99.90;;;;;;5015130;28;20050;-81
2023/10/24 03:44:41;;;;;;;30.45;19.48;;;11.10;99.90;;;;;;5018498;28;20038;-82
2023/10/24 03:47:07;;;;;;;32.97;20.30;;;11.00;99.90;;;;;;5001786;28;20436;-81
2023/10/24 03:49:33;;;;;;;32.47;20.38;;;11.10;99.90;;;;;;4995899;28;20060;-81
2023/10/24 03:51:59;;;;;;;30.25;19.90;;;11.10;99.90;;;;;;5004836;28;20085;-82
2023/10/24 03:54:26;;;;;;;34.58;20.85;;;11.00;99.90;;;;;;4995779;28;20088;-81
2023/10/24 03:56:51;;;;;;;31.80;20.50;;;11.00;99.90;;;;;;4997142;28;20133;-81
2023/10/24 03:59:17;;;;;;;32.97;20.92;;;11.10;99.90;;;;;;4992183;28;20068;-82
2023/10/24 04:01:43;;;;;;;33.38;20.58;;;11.10;99.90;;;;;;5000142;28;20060;-82
2023/10/24 04:04:09;;;;;;;33.67;21.83;;;11.10;99.90;;;;;;5014979;28;20069;-81
2023/10/24 04:06:35;;;;;;;32.80;20.13;;;11.10;99.90;;;;;;4992166;28;20041;-81
2023/10/24 04:09:04;;;;;;;33.58;20.25;;;11.10;99.90;;;;;;5005180;28;20064;-81
2023/10/24 04:11:32;;;;;;;34.03;22.10;;;11.10;99.90;;;;;;5003051;28;20041;-81
2023/10/24 04:13:58;;;;;;;38.53;21.92;;;11.10;99.90;;;;;;4983597;28;20038;-82
2023/10/24 04:16:24;;;;;;;35.95;21.65;;;11.10;99.90;;;;;;5014652;28;20124;-81
2023/10/24 04:18:50;;;;;;;35.40;22.30;;;11.10;99.90;;;;;;5031658;28;20709;-81
2023/10/24 04:21:17;;;;;;;37.10;22.50;;;11.10;99.90;;;;;;5009493;28;20041;-82
2023/10/24 04:23:43;;;;;;;32.13;21.30;;;11.10;99.90;;;;;;5004142;28;20096;-82
2023/10/24 04:26:09;;;;;;;39.92;23.48;;;11.20;99.90;;;;;;5005767;28;20029;-80
2023/10/24 04:28:35;;;;;;;33.97;22.73;;;11.20;99.90;;;;;;4994726;28;20505;-81
2023/10/24 04:31:01;;;;;;;35.47;22.40;;;11.20;99.90;;;;;;5004166;28;20423;-82
2023/10/24 04:33:27;;;;;;;32.75;22.98;;;11.20;99.90;;;;;;4983329;28;20045;-81
2023/10/24 04:35:53;;;;;;;31.13;22.65;;;11.20;99.90;;;;;;4983438;28;20048;-81
2023/10/24 04:38:19;;;;;;;34.70;23.48;;;11.30;99.90;;;;;;5004401;28;20041;-81
2023/10/24 04:40:44;;;;;;;34.25;23.90;;;11.30;99.90;;;;;;4987265;28;20510;-81
2023/10/24 04:43:10;;;;;;;35.05;24.02;;;11.30;99.90;;;;;;4994770;28;20850;-81
2023/10/24 04:45:37;;;;;;;30.45;22.33;;;11.40;99.90;;;;;;5000195;28;20038;-81
2023/10/24 04:48:03;;;;;;;30.90;22.83;;;11.40;99.90;;;;;;5020168;28;20069;-81
2023/10/24 04:50:29;;;;;;;32.85;23.33;;;11.40;99.90;;;;;;4999898;28;20064;-81
2023/10/24 04:52:55;;;;;;;32.03;22.23;;;11.40;99.90;;;;;;5014056;28;20064;-81
2023/10/24 04:55:22;;;;;;;32.08;22.42;;;11.40;99.90;;;;;;5030766;28;20049;-81
2023/10/24 04:57:48;;;;;;;29.60;20.58;;;11.40;99.90;;;;;;4980131;28;20042;-81
2023/10/24 05:00:15;;;;;;;26.55;19.38;;;11.40;99.90;;;;;;5006725;28;20421;-81
2023/10/24 05:02:42;;;;;;;24.98;18.88;;;11.40;99.90;;;;;;4977829;28;20046;-82
2023/10/24 05:05:08;;;;;;;25.95;19.35;;;11.50;99.90;;;;;;5010672;28;20034;-81
2023/10/24 05:07:34;;;;;;;25.65;19.13;;;11.50;99.90;;;;;;5021565;28;20359;-81
2023/10/24 05:09:59;;;;;;;24.27;18.00;;;11.40;99.90;;;;;;5023485;28;20129;-81
2023/10/24 05:12:25;;;;;;;23.77;17.52;;;11.40;99.90;;;;;;5012908;28;20049;-81
2023/10/24 05:14:51;;;;;;;24.90;18.38;;;11.50;99.90;;;;;;4993855;28;20437;-80
2023/10/24 05:17:17;;;;;;;24.13;18.00;;;11.40;99.90;;;;;;4979665;28;20096;-80
2023/10/24 05:19:42;;;;;;;22.17;17.58;;;11.50;99.90;;;;;;5011294;28;20042;-81
2023/10/24 05:22:10;;;;;;;21.40;17.27;;;11.40;99.90;;;;;;5030485;28;20052;-81
2023/10/24 05:24:37;;;;;;;24.27;17.23;;;11.40;99.90;;;;;;5006243;28;20495;-80
2023/10/24 05:27:04;;;;;;;24.10;16.67;;;11.50;99.90;;;;;;5025918;28;20120;-81
2023/10/24 05:29:34;;;;;;;21.05;17.42;;;11.50;99.90;;;;;;5000350;28;20072;-81
2023/10/24 05:32:00;;;;;;;23.65;16.35;;;11.40;99.90;;;;;;5000453;28;20125;-82
2023/10/24 05:34:27;;;;;;;18.23;15.13;;;11.40;99.90;;;;;;5006444;28;20141;-81
2023/10/24 05:36:53;;;;;;;19.42;14.73;;;11.30;99.90;;;;;;4989962;28;20319;-82
2023/10/24 05:39:19;;;;;;;16.38;14.50;;;11.30;99.90;;;;;;5015103;28;20061;-82
2023/10/24 05:41:46;;;;;;;19.30;15.13;;;11.30;99.90;;;;;;5009609;28;20465;-82
2023/10/24 05:44:12;;;;;;;15.73;13.70;;;11.30;99.90;;;;;;4980176;28;20045;-81
2023/10/24 05:46:38;;;;;;;16.52;13.32;;;11.30;99.90;;;;;;4981345;28;20176;-82
2023/10/24 05:49:04;;;;;;;18.80;13.88;;;11.20;99.90;;;;;;5012315;28;20038;-82
2023/10/24 05:51:30;;;;;;;15.27;13.02;;;11.20;99.90;;;;;;5015493;28;20042;-81
2023/10/24 05:53:56;;;;;;;16.63;13.02;;;11.30;99.90;;;;;;4998967;28;20505;-81
2023/10/24 05:56:22;;;;;;;17.63;14.13;;;11.20;99.90;;;;;;5014763;28;20049;-81
2023/10/24 05:58:48;;;;;;;16.73;13.60;;;11.30;99.90;;;;;;5012877;28;20049;-81
2023/10/24 06:01:13;;;;;;;17.75;13.00;;;11.20;99.90;;;;;;5007711;28;20038;-81
2023/10/24 06:03:39;;;;;;;15.57;13.73;;;11.20;99.90;;;;;;5002071;28;20065;-81
2023/10/24 06:06:05;;;;;;;15.50;12.45;;;11.20;99.90;;;;;;4989191;28;20105;-81
2023/10/24 06:08:31;;;;;;;16.25;12.82;;;11.20;99.90;;;;;;5004832;28;20394;-82
2023/10/24 06:10:58;;;;;;;15.00;11.88;;;11.10;99.90;;;;;;4989358;28;20048;-81
2023/10/24 06:13:25;;;;;;;17.83;14.18;;;11.20;99.90;;;;;;4988833;28;20042;-82
2023/10/24 06:15:50;;;;;;;18.08;13.90;;;11.20;99.90;;;;;;4988371;28;20049;-81
2023/10/24 06:18:17;;;;;;;16.63;12.60;;;11.20;99.90;;;;;;4988813;28;20095;-81
2023/10/24 06:20:42;;;;;;;18.27;14.38;;;11.20;99.90;;;;;;4972852;28;20091;-80
2023/10/24 06:23:10;;;;;;;17.20;12.65;;;11.20;99.90;;;;;;5004341;28;20054;-81
2023/10/24 06:25:42;;;;;;;17.58;13.18;;;11.20;99.90;;;;;;4972441;28;20045;-81
2023/10/24 06:28:08;;;;;;;;;;;11.20;99.90;;;;;;4972140;28;20117;-81
2023/10/24 06:30:34;;;;;;;15.18;11.30;;;11.20;99.90;;;;;;4986013;28;20476;-81
2023/10/24 06:33:01;;;;;;;14.02;10.95;;;11.20;99.90;;;;;;4971313;28;20052;-81
2023/10/24 06:35:27;;;;;;;13.13;10.68;;;11.20;99.90;;;;;;4985993;28;20042;-85
2023/10/24 06:37:53;;;;;;;14.13;10.65;;;11.30;99.90;;;;;;4986403;28;20115;-81
2023/10/24 06:40:19;;;;;;;14.13;11.20;;;11.20;99.90;;;;;;5002799;28;20061;-83
2023/10/24 06:42:45;;;;;;;14.48;11.18;;;11.20;99.90;;;;;;4986149;28;20042;-82
2023/10/24 06:45:11;;;;;;;15.13;11.80;;;11.30;99.90;;;;;;4982240;28;20038;-81
2023/10/24 06:47:38;;;;;;;14.38;11.65;;;11.30;99.90;;;;;;4988473;28;20045;-81
2023/10/24 06:50:04;;;;;;;12.80;10.73;;;11.30;99.90;;;;;;4990143;28;20173;-81
2023/10/24 06:52:33;;;;;;;14.93;11.32;;;11.30;99.90;;;;;;5000857;28;20124;-81
2023/10/24 06:55:00;;;;;;;13.88;11.13;;;11.30;99.90;;;;;;5003602;28;20037;-81
2023/10/24 06:57:26;;;;;;;16.42;12.43;;;11.30;99.90;;;;;;4987938;28;20674;-81
2023/10/24 06:59:52;;;;;;;14.82;10.82;;;11.30;99.90;;;;;;5005530;28;20064;-81
2023/10/24 07:02:18;;;;;;;14.25;11.02;;;11.30;99.90;;;;;;5002222;28;20445;-81
2023/10/24 07:04:44;;;;;;;14.93;11.60;;;11.30;99.90;;;;;;4990412;28;20049;-81
2023/10/24 07:07:10;;;;;;;16.02;11.23;;;11.40;99.90;;;;;;4990307;28;20049;-81
2023/10/24 07:09:36;;;;;;;14.00;10.82;;;11.40;99.90;;;;;;5007145;28;20034;-80
2023/10/24 07:12:01;;;;;;;12.00;10.43;;;11.40;99.90;;;;;;4991133;28;20049;-80
2023/10/24 07:14:27;;;;;;;12.23;10.25;;;11.40;99.90;;;;;;4990477;28;20056;-80
2023/10/24 07:16:53;;;;;;;12.88;10.48;;;11.40;99.90;;;;;;4990422;28;20041;-80
2023/10/24 07:19:19;;;;;;;14.30;10.45;;;11.40;99.90;;;;;;4974095;28;20042;-80
2023/10/24 07:21:45;;;;;;;14.07;10.10;;;11.40;99.90;;;;;;4990328;28;20073;-80
2023/10/24 07:24:11;;;;;;;13.48;10.32;;;11.40;99.90;;;;;;4989766;28;20152;-80
2023/10/24 07:26:36;;;;;;;14.07;9.80;;;11.40;99.90;;;;;;4987390;28;20132;-80
2023/10/24 07:29:02;;;;;;;12.55;10.18;;;11.40;99.90;;;;;;4986534;28;20034;-80
2023/10/24 07:31:28;;;;;;;14.38;10.63;;;11.40;99.90;;;;;;4990011;28;20030;-80
2023/10/24 07:33:54;;;;;;;13.50;11.35;;;11.40;99.90;;;;;;4972740;28;20046;-80
2023/10/24 07:36:19;;;;;;;12.18;9.98;;;11.40;99.90;;;;;;4989949;28;20129;-80
2023/10/24 07:38:45;;;;;;;14.15;10.10;;;11.50;99.90;;;;;;4971907;28;20065;-80
2023/10/24 07:41:11;;;;;;;11.68;9.15;;;11.50;99.90;;;;;;4973707;28;20128;-80
2023/10/24 07:43:37;;;;;;;17.63;13.45;;;11.50;99.90;;;;;;4972178;28;20057;-80
2023/10/24 07:46:03;;;;;;;18.38;15.18;;;11.50;99.90;;;;;;4984072;28;20037;-80
2023/10/24 07:48:29;;;;;;;14.85;11.52;;;11.50;99.90;;;;;;4988972;28;20049;-80
2023/10/24 07:50:58;;;;;;;12.68;10.27;;;11.50;99.90;;;;;;4999876;28;20046;-80
2023/10/24 07:53:25;;;;;;;14.48;10.30;;;11.50;99.90;;;;;;5004968;28;20084;-79
2023/10/24 07:55:52;;;;;;;11.55;9.52;;;11.50;99.90;;;;;;5005281;28;20045;-80
2023/10/24 07:58:18;;;;;;;14.30;10.68;;;11.50;99.90;;;;;;5005721;28;20305;-80
2023/10/24 08:00:47;;;;;;;11.98;10.05;;;11.60;99.90;;;;;;4990139;28;20070;-80
2023/10/24 08:03:14;;;;;;;13.15;9.80;;;11.50;99.90;;;;;;5005741;28;20048;-80
2023/10/24 08:05:41;;;;;;;15.07;10.43;;;11.50;99.90;;;;;;4990339;28;20428;-80
2023/10/24 08:08:06;;;;;;;14.80;10.68;;;11.50;99.90;;;;;;5006822;28;20092;-81
2023/10/24 08:10:33;;;;;;;13.90;10.13;;;11.60;99.90;;;;;;4974381;28;20038;-79
2023/10/24 08:12:59;;;;;;;14.90;10.65;;;11.50;99.90;;;;;;5005322;28;20038;-80
2023/10/24 08:15:26;;;;;;;14.23;10.00;;;11.60;99.90;;;;;;4989375;28;20137;-80
2023/10/24 08:17:52;;;;;;;15.82;10.23;;;11.50;99.90;;;;;;5006473;28;20427;-80
2023/10/24 08:20:18;;;;;;;13.63;9.98;;;11.60;99.90;;;;;;4989059;28;20250;-80
2023/10/24 08:22:44;;;;;;;14.02;10.50;;;11.60;99.90;;;;;;4989557;28;20038;-80
2023/10/24 08:25:10;;;;;;;18.15;13.95;;;11.60;99.90;;;;;;5005826;28;20406;-80
2023/10/24 08:27:35;;;;;;;14.93;11.35;;;11.60;99.90;;;;;;4989907;28;20124;-80
2023/10/24 08:30:03;;;;;;;15.10;10.95;;;11.50;99.90;;;;;;4972682;28;20489;-80
2023/10/24 08:32:29;;;;;;;15.40;10.63;;;11.60;99.90;;;;;;4989154;28;20061;-81
2023/10/24 08:34:55;;;;;;;13.43;10.63;;;11.50;99.90;;;;;;5005407;28;20050;-80
2023/10/24 08:37:22;;;;;;;15.63;10.20;;;11.60;99.90;;;;;;4989263;28;20453;-80
2023/10/24 08:39:48;;;;;;;15.70;11.07;;;11.60;99.90;;;;;;5001354;28;20133;-80
2023/10/24 08:42:15;;;;;;;14.40;10.80;;;11.60;99.90;;;;;;5005934;28;20068;-79
2023/10/24 08:44:45;;;;;;;15.60;10.48;;;11.60;99.90;;;;;;4972972;28;20037;-79
2023/10/24 08:47:11;;;;;;;16.08;11.50;;;11.60;99.90;;;;;;4987933;28;20719;-80
2023/10/24 08:49:37;;;;;;;14.82;10.68;;;11.50;99.90;;;;;;4999587;28;20034;-79
2023/10/24 08:52:06;;;;;;;14.30;10.85;;;11.60;99.90;;;;;;5005707;28;20049;-80
2023/10/24 08:54:32;;;;;;;15.50;10.88;;;11.60;99.90;;;;;;4999620;28;20095;-80
2023/10/24 08:57:02;;;;;;;15.25;11.43;;;11.50;99.90;;;;;;5004957;28;20358;-79
2023/10/24 08:59:35;;;;;;;18.02;12.18;;;11.60;99.90;;;;;;5004893;28;20626;-79
2023/10/24 09:02:01;;;;;;;19.83;14.23;;;11.60;99.90;;;;;;4972394;28;20041;-80
2023/10/24 09:04:29;;;;;;;17.08;13.38;;;11.60;99.90;;;;;;4988079;28;20041;-80
2023/10/24 09:06:55;;;;;;;15.50;12.23;;;11.60;99.90;;;;;;4972707;28;20425;-80
2023/10/24 09:09:23;;;;;;;17.25;12.50;;;11.60;99.90;;;;;;4988837;28;20042;-78
2023/10/24 09:11:58;;;;;;;16.58;11.98;;;11.60;99.90;;;;;;5004048;28;20608;-79
2023/10/24 09:14:29;;;;;;;17.10;12.05;;;11.60;99.90;;;;;;4988207;28;20076;-79
2023/10/24 09:17:00;;;;;;;19.85;13.88;;;11.60;99.90;;;;;;4998735;28;20521;-79
2023/10/24 09:19:27;;;;;;;16.75;14.45;;;11.60;99.90;;;;;;4990044;28;20046;-80
2023/10/24 09:21:56;;;;;;;13.48;11.70;;;11.60;99.90;;;;;;4991795;28;20045;-81
2023/10/24 09:24:22;;;;;;;13.32;11.55;;;11.60;99.90;;;;;;4992232;28;20038;-79
2023/10/24 09:26:56;;;;;;;13.85;10.80;;;11.60;99.90;;;;;;4992082;28;20183;-81
2023/10/24 09:29:24;;;;;;;14.68;11.23;;;11.60;99.90;;;;;;4992277;28;20073;-79
2023/10/24 09:31:51;;;;;;;14.70;10.68;;;11.60;99.90;;;;;;5008905;28;20525;-80
2023/10/24 09:34:17;;;;;;;14.23;10.32;;;11.70;99.90;;;;;;4998825;28;20034;-88
2023/10/24 09:36:47;;;;;;;13.65;10.80;;;11.70;99.90;;;;;;4997253;28;20029;-85
2023/10/24 09:39:14;;;;;;;13.32;10.38;;;11.80;99.90;;;;;;4973837;28;20058;-88
2023/10/24 09:41:45;;;;;;;13.52;10.20;;;11.80;99.90;;;;;;5011183;28;20042;-87
2023/10/24 09:44:11;;;;;;;11.75;9.85;;;11.80;99.90;;;;;;5013049;28;20076;-86
2023/10/24 09:46:38;;;;;;;13.45;9.40;;;11.80;99.90;;;;;;5013354;28;20088;-85
2023/10/24 09:49:06;;;;;;;10.57;9.02;;;11.80;99.90;;;;;;4998728;28;20418;-87
2023/10/24 09:51:33;;;;;;;12.40;9.35;;;11.80;99.90;;;;;;4995791;28;20471;-85
2023/10/24 09:53:59;;;;;;;11.65;9.18;;;11.80;99.90;;;;;;5013256;28;20124;-86
2023/10/24 09:56:26;;;;;;;11.70;8.82;;;11.80;99.90;;;;;;4996025;28;20045;-87
2023/10/24 09:58:52;;;;;;;12.05;8.25;;;11.80;99.90;;;;;;5028902;28;20128;-87
2023/10/24 10:01:18;;;;;;;11.45;7.93;;;11.80;99.90;;;;;;4974580;28;20046;-86
2023/10/24 10:03:44;;;;;;;13.43;9.60;;;11.80;99.90;;;;;;4977929;28;20041;-87
2023/10/24 10:06:16;;;;;;;11.55;9.45;;;11.70;99.90;;;;;;4996103;28;20494;-87
2023/10/24 10:08:42;;;;;;;10.57;8.48;;;11.80;99.90;;;;;;4996074;28;21209;-87
2023/10/24 10:11:08;;;;;;;11.93;8.40;;;11.70;99.90;;;;;;4997567;28;20042;-88
2023/10/24 10:13:53;;;;;;;10.38;8.93;;;11.80;99.90;;;;;;5014044;28;20048;-87
2023/10/24 10:16:34;;;;;;;13.15;9.13;;;11.80;99.90;;;;;;4997479;28;20038;-86
2023/10/24 10:19:06;;;;;;;11.05;8.77;;;11.70;99.90;;;;;;4995631;28;20083;-87
2023/10/24 10:22:09;;;;;;;9.98;8.68;;;11.80;99.90;;;;;;4995163;28;20132;-88
2023/10/24 10:24:44;;;;;;;11.90;8.90;;;11.80;99.90;;;;;;5004250;28;20100;-87
2023/10/24 10:27:24;;;;;;;14.63;10.60;;;11.80;99.90;;;;;;5012789;28;20041;-87
2023/10/24 10:30:12;;;;;;;13.98;10.27;;;11.80;99.90;;;;;;5010667;28;20096;-85
2023/10/24 10:32:46;;;;;;;11.25;9.18;;;11.80;99.90;;;;;;5011330;28;20187;-87
2023/10/24 10:35:12;;;;;;;11.55;9.00;;;11.80;99.90;;;;;;5011147;28;20425;-86
2023/10/24 10:37:38;;;;;;;11.45;9.23;;;11.80;99.90;;;;;;4959034;28;20957;-87
2023/10/24 10:40:16;;;;;;;11.23;8.95;;;11.90;99.90;;;;;;5009602;28;20128;-87
2023/10/24 10:42:49;;;;;;;11.10;9.05;;;11.90;99.90;;;;;;5010074;28;20039;-86
2023/10/24 10:45:24;;;;;;;11.93;8.65;;;11.90;99.90;;;;;;4982239;28;20382;-87
2023/10/24 10:47:51;;;;;;;11.18;8.45;;;11.90;99.90;;;;;;5010080;28;20037;-85
2023/10/24 10:50:31;;;;;;;10.90;8.73;;;11.90;99.90;;;;;;4995130;28;20042;-87
2023/10/24 10:53:12;;;;;;;11.07;8.57;;;12.00;99.90;;;;;;4993861;28;20093;-86
2023/10/24 10:55:54;;;;;;;10.30;8.70;;;12.00;99.90;;;;;;5011444;28;20037;-85
2023/10/24 10:58:54;;;;;;;10.98;8.63;;;12.00;99.90;;;;;;4992893;28;20125;-86
2023/10/24 11:01:52;;;;;;;11.05;8.80;;;12.00;99.90;;;;;;4978213;28;20046;-88
2023/10/24 11:04:18;;;;;;;11.50;9.10;;;12.10;99.90;;;;;;4992302;28;20104;-87
2023/10/24 11:06:55;;;;;;;11.68;9.13;;;12.10;99.90;;;;;;4977453;28;20394;-86
2023/10/24 11:09:22;;;;;;;13.23;11.82;;;12.10;99.90;;;;;;4985656;28;20045;-88
2023/10/24 11:12:27;;;;;;;12.02;9.77;;;12.10;99.90;;;;;;5010381;28;20097;-88
2023/10/24 11:15:06;;;;;;;11.10;9.90;;;12.10;99.90;;;;;;4977933;28;20048;-88
2023/10/24 11:17:32;;;;;;;10.57;9.00;;;12.10;99.90;;;;;;5006676;28;20057;-80
2023/10/24 11:19:59;;;;;;;12.02;9.10;;;12.10;99.90;;;;;;5006448;28;20060;-81
2023/10/24 11:22:25;;;;;;;11.98;9.82;;;12.10;99.90;;;;;;4989076;28;20067;-81
2023/10/24 11:24:50;;;;;;;10.93;9.13;;;12.10;99.90;;;;;;4971952;28;20064;-80
2023/10/24 11:27:16;;;;;;;10.65;8.80;;;12.10;99.90;;;;;;4989872;28;20042;-79
2023/10/24 11:29:43;;;;;;;12.00;10.05;;;12.10;99.90;;;;;;5001777;28;20187;-80
2023/10/24 11:32:08;;;;;;;10.75;9.65;;;12.10;99.90;;;;;;4984225;28;20061;-79
2023/10/24 11:34:34;;;;;;;10.60;9.50;;;12.10;99.90;;;;;;4988962;28;20042;-80
2023/10/24 11:37:00;;;;;;;11.80;9.73;;;12.20;99.90;;;;;;4972731;28;20504;-80
2023/10/24 11:39:26;;;;;;;15.02;13.15;;;12.20;99.90;;;;;;4989183;28;20054;-79
2023/10/24 11:41:52;;;;;;;12.85;10.60;;;12.20;99.90;;;;;;4972137;28;20038;-80
2023/10/24 11:44:18;;;;;;;12.75;10.00;;;12.20;99.90;;;;;;4988053;28;20048;-80
2023/10/24 11:46:44;;;;;;;11.00;9.80;;;12.20;99.90;;;;;;4988781;28;20045;-80
2023/10/24 11:49:10;;;;;;;12.88;9.95;;;12.20;99.90;;;;;;5004925;28;20124;-80
2023/10/24 11:51:37;;;;;;;12.75;10.77;;;12.30;99.90;;;;;;5005512;28;20037;-80
2023/10/24 11:54:04;;;;;;;13.73;11.43;;;12.30;99.90;;;;;;5004643;28;20490;-81
2023/10/24 11:56:31;;;;;;;14.15;11.55;;;12.30;99.90;;;;;;4989209;28;20124;-80
2023/10/24 11:58:57;;;;;;;15.23;11.93;;;12.30;99.90;;;;;;4972393;28;20038;-80
2023/10/24 12:01:27;;;;;;;14.93;11.70;;;12.30;99.90;;;;;;5004001;28;21630;-80
2023/10/24 12:03:56;;;;;;;13.80;10.70;;;12.30;99.90;;;;;;4983978;28;20061;-80
2023/10/24 12:06:22;;;;;;;14.85;11.30;;;12.30;99.90;;;;;;4983476;28;20100;-80
2023/10/24 12:08:49;;;;;;;19.88;12.35;;;12.40;99.90;;;;;;4987781;28;20112;-79
2023/10/24 12:11:15;;;;;;;14.00;11.60;;;12.50;99.90;;;;;;4986945;28;20049;-80
2023/10/24 12:13:41;;;;;;;17.45;12.07;;;12.50;99.90;;;;;;4988903;28;20037;-80
2023/10/24 12:16:07;;;;;;;16.33;13.02;;;12.60;99.90;;;;;;4970354;28;20053;-79
2023/10/24 12:18:33;;;;;;;17.95;12.45;;;12.70;99.90;;;;;;5004944;28;20416;-80
2023/10/24 12:20:59;;;;;;;15.95;11.80;;;12.90;99.90;;;;;;5003825;28;20138;-81
2023/10/24 12:23:26;;;;;;;12.63;11.25;;;13.00;99.90;;;;;;4986495;28;20045;-80
2023/10/24 12:25:54;;;;;;;16.63;11.77;;;13.10;99.90;;;;;;5004048;28;20041;-80
2023/10/24 12:28:20;;;;;;;13.00;10.48;;;13.10;99.90;;;;;;4999649;28;20034;-81